Lewes — WDC9301 — position and weather

sailwx.info

Track history (hours):
 
Tides and Currents Weather Stations Pressure Air Temp Water Temp Dewpoint Dewpoint Depression Visibility Wind Speed Wind Dir Waves Ship Positions

Lewes

Owner: OVERFALLS LEASING LLC, LEWES, DE. More information available from US FCC via Universal Licensing System and Coast Guard Vessel Documentation Center.

Last reported at 2018-Jul-20 11:34 UTC. Time now 2018-Jul-23 07:34 UTC.
Position N 38°47' W 075°07'.

Type: Pilot. MMSI: 367100370.

Date/timePositionNaut miles runAvg speedWind from/ knotsBaromVisibWave heightAir tempDewpointWater temp
2018-Jul-20 11:34N 38°47' W 075°07'0 0.0
2018-Jul-20 11:25N 38°47' W 075°07'0 0.0
2018-Jul-20 11:01N 38°47' W 075°07'4 7.4
2018-Jul-20 10:30N 38°50' W 075°05'4 6.6
2018-Jul-20 09:55N 38°47' W 075°07'0 0.0
2018-Jul-20 09:26N 38°47' W 075°07'0 0.0
2018-Jul-20 08:58N 38°47' W 075°07'0 0.0
2018-Jul-20 08:30N 38°47' W 075°07'0 0.0
2018-Jul-20 08:00N 38°47' W 075°07'0 0.0
2018-Jul-20 07:29N 38°47' W 075°07'0 0.0
2018-Jul-20 05:09N 38°47' W 075°07'0 0.0
2018-Jul-20 05:00N 38°47' W 075°07'0 0.0
2018-Jul-20 04:30N 38°47' W 075°07'0 0.0
2018-Jul-20 04:00N 38°47' W 075°07'0 0.0
2018-Jul-20 03:30N 38°47' W 075°07'3 4.7
2018-Jul-20 02:52N 38°49' W 075°04'3 7.2
2018-Jul-20 02:30N 38°48' W 075°07'1 0.4
2018-Jul-19 23:56N 38°47' W 075°07'4 8.4
2018-Jul-19 23:27N 38°48' W 075°02'4 2.6
2018-Jul-19 21:54N 38°47' W 075°07'4 0.5
2018-Jul-19 13:29N 38°51' W 075°06'4 8.7
2018-Jul-19 13:00N 38°47' W 075°07'4 6.9
2018-Jul-19 12:29N 38°47' W 075°03'4 7.2
2018-Jul-19 11:59N 38°47' W 075°07'0 0.0
2018-Jul-19 11:30N 38°47' W 075°07'0 0.0
2018-Jul-19 11:00N 38°47' W 075°07'0 0.0
2018-Jul-19 10:30N 38°47' W 075°07'0 0.0
2018-Jul-19 10:00N 38°47' W 075°07'0 0.0
2018-Jul-19 09:30N 38°47' W 075°07'0 0.0
2018-Jul-19 08:59N 38°47' W 075°07'0 0.0
2018-Jul-19 08:29N 38°47' W 075°07'2 0.8
2018-Jul-19 06:07N 38°49' W 075°06'222.7
2018-Jul-19 06:00N 38°48' W 075°03'3 1.2
2018-Jul-19 03:15N 38°47' W 075°07'517.6
2018-Jul-19 03:00N 38°51' W 075°05'5 5.2
2018-Jul-19 02:07N 38°47' W 075°07'211.9
2018-Jul-19 01:57N 38°49' W 075°06'2 0.1
2018-Jul-18 08:58N 38°47' W 075°07'2 3.4
2018-Jul-18 08:25N 38°49' W 075°06'1 0.3
2018-Jul-18 04:25N 38°48' W 075°07'1 0.0
2018-Jul-17 11:52N 38°47' W 075°07'0 0.0
2018-Jul-17 07:29N 38°47' W 075°07'0 0.0
2018-Jul-17 03:03N 38°47' W 075°07'0 0.0
2018-Jul-17 02:56N 38°47' W 075°07'1 0.9
2018-Jul-17 02:22N 38°47' W 075°07'2 5.4
2018-Jul-17 01:58N 38°48' W 075°04'2 0.6
2018-Jul-16 22:07N 38°50' W 075°05'4 0.5
2018-Jul-16 13:11N 38°47' W 075°07'0 0.0
2018-Jul-16 12:57N 38°47' W 075°07'3 7.9
2018-Jul-16 12:30N 38°50' W 075°05'3 7.0
2018-Jul-16 12:00N 38°47' W 075°07'0 0.0
2018-Jul-16 11:30N 38°47' W 075°07'0 0.0
2018-Jul-16 11:00N 38°47' W 075°07'0 0.0
2018-Jul-16 10:30N 38°47' W 075°07'4 8.3
2018-Jul-16 10:01N 38°47' W 075°02'4 8.1
2018-Jul-16 09:30N 38°47' W 075°07'0 0.0
2018-Jul-16 08:47N 38°47' W 075°07'0 0.0
2018-Jul-16 08:19N 38°47' W 075°07'0 0.0
2018-Jul-16 07:57N 38°47' W 075°07'0 0.0
2018-Jul-16 07:20N 38°47' W 075°07'0 0.0
2018-Jul-16 07:01N 38°47' W 075°07'2 0.1
2018-Jul-15 13:43N 38°48' W 075°04'211.3
2018-Jul-15 13:30N 38°47' W 075°07'0 0.0
2018-Jul-15 13:00N 38°47' W 075°07'0 0.0
2018-Jul-15 12:30N 38°47' W 075°07'510.4
2018-Jul-15 12:01N 38°52' W 075°08'4 7.4
2018-Jul-15 11:30N 38°56' W 075°09'0 0.4
2018-Jul-15 11:00N 38°55' W 075°09'0 0.1
2018-Jul-15 10:30N 38°55' W 075°09'0 0.0
2018-Jul-15 10:00N 38°55' W 075°09'1 1.7
2018-Jul-15 09:30N 38°55' W 075°09'813.7
2018-Jul-15 08:56N 38°47' W 075°07'0 0.7
2018-Jul-15 08:30N 38°47' W 075°07'0 0.4
2018-Jul-15 07:45N 38°47' W 075°07'0 0.0
2018-Jul-15 07:30N 38°47' W 075°07'0 0.0
2018-Jul-15 07:00N 38°47' W 075°07'0 0.0
2018-Jul-15 06:30N 38°47' W 075°07'0 0.0
2018-Jul-15 06:00N 38°47' W 075°07'2 3.3
2018-Jul-15 05:30N 38°48' W 075°06'2 3.3
2018-Jul-15 05:00N 38°47' W 075°07'0 0.0
2018-Jul-15 04:30N 38°47' W 075°07'0 0.0
2018-Jul-15 04:00N 38°47' W 075°07'0 0.0
2018-Jul-15 03:29N 38°47' W 075°07'4 8.4
2018-Jul-15 03:00N 38°47' W 075°02'4 8.2
2018-Jul-15 02:30N 38°47' W 075°07'0 0.0
2018-Jul-15 01:59N 38°47' W 075°07'1 0.3
2018-Jul-14 20:59N 38°48' W 075°07'1 1.2
2018-Jul-14 19:54N 38°47' W 075°07'0 0.0
2018-Jul-14 19:28N 38°47' W 075°07'0 0.0
2018-Jul-14 18:42N 38°47' W 075°07'0 0.0
2018-Jul-14 18:30N 38°47' W 075°07'0 0.0
2018-Jul-14 13:21N 38°47' W 075°07'310.0
2018-Jul-14 13:01N 38°48' W 075°03'3 6.5
2018-Jul-14 12:30N 38°47' W 075°07'0 0.0
2018-Jul-14 12:00N 38°47' W 075°07'0 0.0
2018-Jul-14 11:30N 38°47' W 075°07'0 0.0
2018-Jul-14 10:59N 38°47' W 075°07'0 0.0
2018-Jul-14 10:30N 38°47' W 075°07'0 0.0
2018-Jul-14 10:00N 38°47' W 075°07'0 0.0
2018-Jul-14 09:30N 38°47' W 075°07'0 0.0
2018-Jul-14 09:00N 38°47' W 075°07'0 0.0
2018-Jul-14 08:30N 38°47' W 075°07'1 2.4
2018-Jul-14 08:00N 38°48' W 075°07'4 8.3
2018-Jul-14 07:30N 38°47' W 075°02'4 8.2
2018-Jul-14 07:00N 38°47' W 075°07'0 0.0
2018-Jul-14 06:30N 38°47' W 075°07'0 0.0
2018-Jul-14 06:00N 38°47' W 075°07'0 0.0
2018-Jul-14 05:31N 38°47' W 075°07'3 5.9
2018-Jul-14 05:01N 38°48' W 075°04'3 5.8
2018-Jul-14 04:30N 38°47' W 075°07'0 0.0
2018-Jul-14 04:00N 38°47' W 075°07'0 0.0
2018-Jul-14 03:30N 38°47' W 075°07'0 0.0
2018-Jul-14 02:56N 38°47' W 075°07'0 0.0
2018-Jul-14 02:30N 38°47' W 075°07'0 0.0
2018-Jul-14 01:34N 38°47' W 075°07'0 0.0
2018-Jul-14 01:30N 38°47' W 075°07'0 0.0
2018-Jul-14 00:45N 38°47' W 075°07'0 0.0
2018-Jul-14 00:24N 38°47' W 075°07'0 0.0
2018-Jul-13 23:53N 38°47' W 075°07'3 9.0
2018-Jul-13 23:30N 38°50' W 075°06'4 8.7
2018-Jul-13 23:00N 38°47' W 075°02'4 3.2
2018-Jul-13 21:37N 38°51' W 075°05'110.7
2018-Jul-13 21:29N 38°50' W 075°05'3 4.5
2018-Jul-13 20:47N 38°47' W 075°07'0 0.0
2018-Jul-13 20:24N 38°47' W 075°07'0 0.0
2018-Jul-13 14:35N 38°47' W 075°07'0 0.0
2018-Jul-13 14:29N 38°47' W 075°07'0 0.0
2018-Jul-13 13:30N 38°47' W 075°07'0 0.0
2018-Jul-13 13:00N 38°47' W 075°07'4 8.5
2018-Jul-13 12:31N 38°51' W 075°05'4 8.3
2018-Jul-13 12:00N 38°47' W 075°07'0 0.0
2018-Jul-13 11:30N 38°47' W 075°07'0 0.0
2018-Jul-13 11:00N 38°47' W 075°07'0 0.0
2018-Jul-13 10:30N 38°47' W 075°07'0 0.0
2018-Jul-13 10:00N 38°47' W 075°07'2 5.0
2018-Jul-13 09:30N 38°48' W 075°04'2 4.9
2018-Jul-13 09:00N 38°47' W 075°07'0 0.0
2018-Jul-13 08:30N 38°47' W 075°07'0 0.0
2018-Jul-13 08:01N 38°47' W 075°07'0 0.0
2018-Jul-13 07:30N 38°47' W 075°07'0 0.0
2018-Jul-13 07:00N 38°47' W 075°07'0 0.1
2018-Jul-13 06:31N 38°47' W 075°07'0 0.1
2018-Jul-13 06:00N 38°47' W 075°07'0 0.0
2018-Jul-13 05:29N 38°47' W 075°07'1 1.6
2018-Jul-13 05:01N 38°48' W 075°07'1121.9
2018-Jul-13 04:30N 38°57' W 074°59'5 9.7
2018-Jul-13 04:00N 38°53' W 075°02'713.9
2018-Jul-13 03:30N 38°47' W 075°07'0 0.0
2018-Jul-13 02:59N 38°47' W 075°07'0 0.0
2018-Jul-13 02:30N 38°47' W 075°07'0 0.0
2018-Jul-13 02:00N 38°47' W 075°07'0 0.0
2018-Jul-13 01:30N 38°47' W 075°07'0 0.0
2018-Jul-13 01:00N 38°47' W 075°07'0 0.0
2018-Jul-13 00:31N 38°47' W 075°07'0 0.0
2018-Jul-12 23:54N 38°47' W 075°07'0 0.0
2018-Jul-12 15:35N 38°47' W 075°07'0 0.0
2018-Jul-12 15:30N 38°47' W 075°07'0 0.0
2018-Jul-12 14:01N 38°47' W 075°07'0 0.0
2018-Jul-12 12:00N 38°47' W 075°07'2 4.3
2018-Jul-12 11:30N 38°48' W 075°05'2 1.6
2018-Jul-12 10:13N 38°47' W 075°07'0 0.0
2018-Jul-12 02:25N 38°47' W 075°07'0 0.0
2018-Jul-12 01:35N 38°47' W 075°07'0 0.0
2018-Jul-12 01:27N 38°47' W 075°07'0 0.0
2018-Jul-12 01:00N 38°47' W 075°07'0 0.0
2018-Jul-12 00:30N 38°47' W 075°07'0 0.0
2018-Jul-11 23:59N 38°47' W 075°07'0 0.0
2018-Jul-11 23:11N 38°47' W 075°07'0 0.0
2018-Jul-11 15:52N 38°47' W 075°07'0 0.0
2018-Jul-11 15:25N 38°47' W 075°07'0 0.0
2018-Jul-11 13:31N 38°47' W 075°07'0 0.4
2018-Jul-11 13:30N 38°47' W 075°07'0 0.0
2018-Jul-11 13:00N 38°47' W 075°07'0 0.0
2018-Jul-11 12:30N 38°47' W 075°07'0 0.0
2018-Jul-11 12:01N 38°47' W 075°07'0 0.0
2018-Jul-11 11:30N 38°47' W 075°07'0 0.0
2018-Jul-11 10:55N 38°47' W 075°07'0 0.0
2018-Jul-11 10:30N 38°47' W 075°07'0 0.0
2018-Jul-11 10:00N 38°47' W 075°07'0 0.0
2018-Jul-11 09:27N 38°47' W 075°07'0 0.0
2018-Jul-11 08:17N 38°47' W 075°07'0 0.0
2018-Jul-11 07:57N 38°47' W 075°07'4 8.5
2018-Jul-11 07:30N 38°48' W 075°03'4 7.6
2018-Jul-11 07:00N 38°47' W 075°07'0 0.0
2018-Jul-11 06:29N 38°47' W 075°07'0 0.0
2018-Jul-11 06:00N 38°47' W 075°07'0 0.0
2018-Jul-11 05:30N 38°47' W 075°07'0 0.0
2018-Jul-11 05:00N 38°47' W 075°07'0 0.0
2018-Jul-11 04:30N 38°47' W 075°07'0 0.0
2018-Jul-11 02:42N 38°47' W 075°07'0 0.0
2018-Jul-11 02:29N 38°47' W 075°07'0 0.0
2018-Jul-11 01:52N 38°47' W 075°07'0 0.0
2018-Jul-11 01:25N 38°47' W 075°07'0 0.0
2018-Jul-11 01:00N 38°47' W 075°07'5 1.1
2018-Jul-10 20:39N 38°52' W 075°05'5 0.9
2018-Jul-10 15:06N 38°47' W 075°07'0 0.0
2018-Jul-10 14:48N 38°47' W 075°07'0 0.0
2018-Jul-10 13:34N 38°47' W 075°07'0 0.0
2018-Jul-10 13:30N 38°47' W 075°07'1 2.9
2018-Jul-10 13:00N 38°48' W 075°07'0 0.2
2018-Jul-10 12:19N 38°48' W 075°07'2 8.1
2018-Jul-10 12:00N 38°48' W 075°04'  
Track history (hours):
 
Tides and Currents Weather Stations Pressure Air Temp Water Temp Dewpoint Dewpoint Depression Visibility Wind Speed Wind Dir Waves Ship Positions

Lewes

Owner: OVERFALLS LEASING LLC, LEWES, DE. More information available from US FCC via Universal Licensing System and Coast Guard Vessel Documentation Center.

Last reported at 2018-Jul-20 11:34 UTC. Time now 2018-Jul-23 07:34 UTC.
Position N 38°47' W 075°07'.

Type: Pilot. MMSI: 367100370.

Date/timePositionNaut miles runAvg speedWind from/ knotsBaromVisibWave heightAir tempDewpointWater temp
2018-Jul-20 11:34N 38°47' W 075°07'0 0.0
2018-Jul-20 11:25N 38°47' W 075°07'0 0.0
2018-Jul-20 11:01N 38°47' W 075°07'4 7.4
2018-Jul-20 10:30N 38°50' W 075°05'4 6.6
2018-Jul-20 09:55N 38°47' W 075°07'0 0.0
2018-Jul-20 09:26N 38°47' W 075°07'0 0.0
2018-Jul-20 08:58N 38°47' W 075°07'0 0.0
2018-Jul-20 08:30N 38°47' W 075°07'0 0.0
2018-Jul-20 08:00N 38°47' W 075°07'0 0.0
2018-Jul-20 07:29N 38°47' W 075°07'0 0.0
2018-Jul-20 05:09N 38°47' W 075°07'0 0.0
2018-Jul-20 05:00N 38°47' W 075°07'0 0.0
2018-Jul-20 04:30N 38°47' W 075°07'0 0.0
2018-Jul-20 04:00N 38°47' W 075°07'0 0.0
2018-Jul-20 03:30N 38°47' W 075°07'3 4.7
2018-Jul-20 02:52N 38°49' W 075°04'3 7.2
2018-Jul-20 02:30N 38°48' W 075°07'1 0.4
2018-Jul-19 23:56N 38°47' W 075°07'4 8.4
2018-Jul-19 23:27N 38°48' W 075°02'4 2.6
2018-Jul-19 21:54N 38°47' W 075°07'4 0.5
2018-Jul-19 13:29N 38°51' W 075°06'4 8.7
2018-Jul-19 13:00N 38°47' W 075°07'4 6.9
2018-Jul-19 12:29N 38°47' W 075°03'4 7.2
2018-Jul-19 11:59N 38°47' W 075°07'0 0.0
2018-Jul-19 11:30N 38°47' W 075°07'0 0.0
2018-Jul-19 11:00N 38°47' W 075°07'0 0.0
2018-Jul-19 10:30N 38°47' W 075°07'0 0.0
2018-Jul-19 10:00N 38°47' W 075°07'0 0.0
2018-Jul-19 09:30N 38°47' W 075°07'0 0.0
2018-Jul-19 08:59N 38°47' W 075°07'0 0.0
2018-Jul-19 08:29N 38°47' W 075°07'2 0.8
2018-Jul-19 06:07N 38°49' W 075°06'222.7
2018-Jul-19 06:00N 38°48' W 075°03'3 1.2
2018-Jul-19 03:15N 38°47' W 075°07'517.6
2018-Jul-19 03:00N 38°51' W 075°05'5 5.2
2018-Jul-19 02:07N 38°47' W 075°07'211.9
2018-Jul-19 01:57N 38°49' W 075°06'2 0.1
2018-Jul-18 08:58N 38°47' W 075°07'2 3.4
2018-Jul-18 08:25N 38°49' W 075°06'1 0.3
2018-Jul-18 04:25N 38°48' W 075°07'1 0.0
2018-Jul-17 11:52N 38°47' W 075°07'0 0.0
2018-Jul-17 07:29N 38°47' W 075°07'0 0.0
2018-Jul-17 03:03N 38°47' W 075°07'0 0.0
2018-Jul-17 02:56N 38°47' W 075°07'1 0.9
2018-Jul-17 02:22N 38°47' W 075°07'2 5.4
2018-Jul-17 01:58N 38°48' W 075°04'2 0.6
2018-Jul-16 22:07N 38°50' W 075°05'4 0.5
2018-Jul-16 13:11N 38°47' W 075°07'0 0.0
2018-Jul-16 12:57N 38°47' W 075°07'3 7.9
2018-Jul-16 12:30N 38°50' W 075°05'3 7.0
2018-Jul-16 12:00N 38°47' W 075°07'0 0.0
2018-Jul-16 11:30N 38°47' W 075°07'0 0.0
2018-Jul-16 11:00N 38°47' W 075°07'0 0.0
2018-Jul-16 10:30N 38°47' W 075°07'4 8.3
2018-Jul-16 10:01N 38°47' W 075°02'4 8.1
2018-Jul-16 09:30N 38°47' W 075°07'0 0.0
2018-Jul-16 08:47N 38°47' W 075°07'0 0.0
2018-Jul-16 08:19N 38°47' W 075°07'0 0.0
2018-Jul-16 07:57N 38°47' W 075°07'0 0.0
2018-Jul-16 07:20N 38°47' W 075°07'0 0.0
2018-Jul-16 07:01N 38°47' W 075°07'2 0.1
2018-Jul-15 13:43N 38°48' W 075°04'211.3
2018-Jul-15 13:30N 38°47' W 075°07'0 0.0
2018-Jul-15 13:00N 38°47' W 075°07'0 0.0
2018-Jul-15 12:30N 38°47' W 075°07'510.4
2018-Jul-15 12:01N 38°52' W 075°08'4 7.4
2018-Jul-15 11:30N 38°56' W 075°09'0 0.4
2018-Jul-15 11:00N 38°55' W 075°09'0 0.1
2018-Jul-15 10:30N 38°55' W 075°09'0 0.0
2018-Jul-15 10:00N 38°55' W 075°09'1 1.7
2018-Jul-15 09:30N 38°55' W 075°09'813.7
2018-Jul-15 08:56N 38°47' W 075°07'0 0.7
2018-Jul-15 08:30N 38°47' W 075°07'0 0.4
2018-Jul-15 07:45N 38°47' W 075°07'0 0.0
2018-Jul-15 07:30N 38°47' W 075°07'0 0.0
2018-Jul-15 07:00N 38°47' W 075°07'0 0.0
2018-Jul-15 06:30N 38°47' W 075°07'0 0.0
2018-Jul-15 06:00N 38°47' W 075°07'2 3.3
2018-Jul-15 05:30N 38°48' W 075°06'2 3.3
2018-Jul-15 05:00N 38°47' W 075°07'0 0.0
2018-Jul-15 04:30N 38°47' W 075°07'0 0.0
2018-Jul-15 04:00N 38°47' W 075°07'0 0.0
2018-Jul-15 03:29N 38°47' W 075°07'4 8.4
2018-Jul-15 03:00N 38°47' W 075°02'4 8.2
2018-Jul-15 02:30N 38°47' W 075°07'0 0.0
2018-Jul-15 01:59N 38°47' W 075°07'1 0.3
2018-Jul-14 20:59N 38°48' W 075°07'1 1.2
2018-Jul-14 19:54N 38°47' W 075°07'0 0.0
2018-Jul-14 19:28N 38°47' W 075°07'0 0.0
2018-Jul-14 18:42N 38°47' W 075°07'0 0.0
2018-Jul-14 18:30N 38°47' W 075°07'0 0.0
2018-Jul-14 13:21N 38°47' W 075°07'310.0
2018-Jul-14 13:01N 38°48' W 075°03'3 6.5
2018-Jul-14 12:30N 38°47' W 075°07'0 0.0
2018-Jul-14 12:00N 38°47' W 075°07'0 0.0
2018-Jul-14 11:30N 38°47' W 075°07'0 0.0
2018-Jul-14 10:59N 38°47' W 075°07'0 0.0
2018-Jul-14 10:30N 38°47' W 075°07'0 0.0
2018-Jul-14 10:00N 38°47' W 075°07'0 0.0
2018-Jul-14 09:30N 38°47' W 075°07'0 0.0
2018-Jul-14 09:00N 38°47' W 075°07'0 0.0
2018-Jul-14 08:30N 38°47' W 075°07'1 2.4
2018-Jul-14 08:00N 38°48' W 075°07'4 8.3
2018-Jul-14 07:30N 38°47' W 075°02'4 8.2
2018-Jul-14 07:00N 38°47' W 075°07'0 0.0
2018-Jul-14 06:30N 38°47' W 075°07'0 0.0
2018-Jul-14 06:00N 38°47' W 075°07'0 0.0
2018-Jul-14 05:31N 38°47' W 075°07'3 5.9
2018-Jul-14 05:01N 38°48' W 075°04'3 5.8
2018-Jul-14 04:30N 38°47' W 075°07'0 0.0
2018-Jul-14 04:00N 38°47' W 075°07'0 0.0
2018-Jul-14 03:30N 38°47' W 075°07'0 0.0
2018-Jul-14 02:56N 38°47' W 075°07'0 0.0
2018-Jul-14 02:30N 38°47' W 075°07'0 0.0
2018-Jul-14 01:34N 38°47' W 075°07'0 0.0
2018-Jul-14 01:30N 38°47' W 075°07'0 0.0
2018-Jul-14 00:45N 38°47' W 075°07'0 0.0
2018-Jul-14 00:24N 38°47' W 075°07'0 0.0
2018-Jul-13 23:53N 38°47' W 075°07'3 9.0
2018-Jul-13 23:30N 38°50' W 075°06'4 8.7
2018-Jul-13 23:00N 38°47' W 075°02'4 3.2
2018-Jul-13 21:37N 38°51' W 075°05'110.7
2018-Jul-13 21:29N 38°50' W 075°05'3 4.5
2018-Jul-13 20:47N 38°47' W 075°07'0 0.0
2018-Jul-13 20:24N 38°47' W 075°07'0 0.0
2018-Jul-13 14:35N 38°47' W 075°07'0 0.0
2018-Jul-13 14:29N 38°47' W 075°07'0 0.0
2018-Jul-13 13:30N 38°47' W 075°07'0 0.0
2018-Jul-13 13:00N 38°47' W 075°07'4 8.5
2018-Jul-13 12:31N 38°51' W 075°05'4 8.3
2018-Jul-13 12:00N 38°47' W 075°07'0 0.0
2018-Jul-13 11:30N 38°47' W 075°07'0 0.0
2018-Jul-13 11:00N 38°47' W 075°07'0 0.0
2018-Jul-13 10:30N 38°47' W 075°07'0 0.0
2018-Jul-13 10:00N 38°47' W 075°07'2 5.0
2018-Jul-13 09:30N 38°48' W 075°04'2 4.9
2018-Jul-13 09:00N 38°47' W 075°07'0 0.0
2018-Jul-13 08:30N 38°47' W 075°07'0 0.0
2018-Jul-13 08:01N 38°47' W 075°07'0 0.0
2018-Jul-13 07:30N 38°47' W 075°07'0 0.0
2018-Jul-13 07:00N 38°47' W 075°07'0 0.1
2018-Jul-13 06:31N 38°47' W 075°07'0 0.1
2018-Jul-13 06:00N 38°47' W 075°07'0 0.0
2018-Jul-13 05:29N 38°47' W 075°07'1 1.6
2018-Jul-13 05:01N 38°48' W 075°07'1121.9
2018-Jul-13 04:30N 38°57' W 074°59'5 9.7
2018-Jul-13 04:00N 38°53' W 075°02'713.9
2018-Jul-13 03:30N 38°47' W 075°07'0 0.0
2018-Jul-13 02:59N 38°47' W 075°07'0 0.0
2018-Jul-13 02:30N 38°47' W 075°07'0 0.0
2018-Jul-13 02:00N 38°47' W 075°07'0 0.0
2018-Jul-13 01:30N 38°47' W 075°07'0 0.0
2018-Jul-13 01:00N 38°47' W 075°07'0 0.0
2018-Jul-13 00:31N 38°47' W 075°07'0 0.0
2018-Jul-12 23:54N 38°47' W 075°07'0 0.0
2018-Jul-12 15:35N 38°47' W 075°07'0 0.0
2018-Jul-12 15:30N 38°47' W 075°07'0 0.0
2018-Jul-12 14:01N 38°47' W 075°07'0 0.0
2018-Jul-12 12:00N 38°47' W 075°07'2 4.3
2018-Jul-12 11:30N 38°48' W 075°05'2 1.6
2018-Jul-12 10:13N 38°47' W 075°07'0 0.0
2018-Jul-12 02:25N 38°47' W 075°07'0 0.0
2018-Jul-12 01:35N 38°47' W 075°07'0 0.0
2018-Jul-12 01:27N 38°47' W 075°07'0 0.0
2018-Jul-12 01:00N 38°47' W 075°07'0 0.0
2018-Jul-12 00:30N 38°47' W 075°07'0 0.0
2018-Jul-11 23:59N 38°47' W 075°07'0 0.0
2018-Jul-11 23:11N 38°47' W 075°07'0 0.0
2018-Jul-11 15:52N 38°47' W 075°07'0 0.0
2018-Jul-11 15:25N 38°47' W 075°07'0 0.0
2018-Jul-11 13:31N 38°47' W 075°07'0 0.4
2018-Jul-11 13:30N 38°47' W 075°07'0 0.0
2018-Jul-11 13:00N 38°47' W 075°07'0 0.0
2018-Jul-11 12:30N 38°47' W 075°07'0 0.0
2018-Jul-11 12:01N 38°47' W 075°07'0 0.0
2018-Jul-11 11:30N 38°47' W 075°07'0 0.0
2018-Jul-11 10:55N 38°47' W 075°07'0 0.0
2018-Jul-11 10:30N 38°47' W 075°07'0 0.0
2018-Jul-11 10:00N 38°47' W 075°07'0 0.0
2018-Jul-11 09:27N 38°47' W 075°07'0 0.0
2018-Jul-11 08:17N 38°47' W 075°07'0 0.0
2018-Jul-11 07:57N 38°47' W 075°07'4 8.5
2018-Jul-11 07:30N 38°48' W 075°03'4 7.6
2018-Jul-11 07:00N 38°47' W 075°07'0 0.0
2018-Jul-11 06:29N 38°47' W 075°07'0 0.0
2018-Jul-11 06:00N 38°47' W 075°07'0 0.0
2018-Jul-11 05:30N 38°47' W 075°07'0 0.0
2018-Jul-11 05:00N 38°47' W 075°07'0 0.0
2018-Jul-11 04:30N 38°47' W 075°07'0 0.0
2018-Jul-11 02:42N 38°47' W 075°07'0 0.0
2018-Jul-11 02:29N 38°47' W 075°07'0 0.0
2018-Jul-11 01:52N 38°47' W 075°07'0 0.0
2018-Jul-11 01:25N 38°47' W 075°07'0 0.0
2018-Jul-11 01:00N 38°47' W 075°07'5 1.1
2018-Jul-10 20:39N 38°52' W 075°05'5 0.9
2018-Jul-10 15:06N 38°47' W 075°07'0 0.0
2018-Jul-10 14:48N 38°47' W 075°07'0 0.0
2018-Jul-10 13:34N 38°47' W 075°07'0 0.0
2018-Jul-10 13:30N 38°47' W 075°07'1 2.9
2018-Jul-10 13:00N 38°48' W 075°07'0 0.2
2018-Jul-10 12:19N 38°48' W 075°07'2 8.1
2018-Jul-10 12:00N 38°48' W 075°04'  

Dump ship's entire track history